Latest Weather Observations for Cleve Airport

IDS60801

Issued at 9:01 pm CST Tuesday 24 May 2016 (issued every 30 minutes, with the page automatically refreshed every 10 minutes)

About weather observations | Map of weather stations | Latest weather observations for SA | Other Formats
Station Details ID: 018116 Name: CLEVE AERODROME Lat: -33.71 Lon: 136.50 Height: 175.0 m
Data from the previous 72 hours. | See also: Recent months at Cleve Airport
Date/Time
CST
Temp
°C
App
Temp
°C
Dew
Point
Rel
Hum
%
Delta-T
°C
Wind Press
QNH
hPa
Press
MSL
hPa
Rain
since 9 am
mm
Dir
 
Spd
km/h
Gust
km/h
Spd
kts
Gust
kts
24/09:00pm 17.6 7.1 -2.6 25 8.4 N 43 57 23 31 1013.3 1013.1 0.0
24/08:30pm 17.1 7.0 -2.5 26 8.1 N 41 52 22 28 1013.9 - 0.0
24/08:00pm 17.3 7.6 -1.9 27 8.0 N 39 52 21 28 1014.0 - 0.0
24/07:30pm 17.3 8.9 -1.4 28 7.9 N 33 46 18 25 1014.3 - 0.0
24/07:00pm 16.6 9.7 -0.1 32 7.2 N 26 37 14 20 1014.7 - 0.0
24/06:30pm 17.1 10.2 -0.1 31 7.5 N 26 37 14 20 1014.9 - 0.0
24/06:00pm 17.2 11.6 -0.1 31 7.5 N 19 24 10 13 1015.1 1015.0 0.0
24/05:30pm 17.4 12.3 0.6 32 7.4 N 17 20 9 11 1015.2 - 0.0
24/05:00pm 18.4 12.9 0.5 30 8.0 N 19 24 10 13 1015.4 - 0.0
24/04:30pm 19.2 12.8 1.2 30 8.2 N 24 33 13 18 1015.6 - 0.0
24/04:00pm 19.6 12.8 1.1 29 8.4 N 26 39 14 21 1015.5 - 0.0
24/03:30pm 20.5 13.4 1.4 28 8.8 N 28 37 15 20 1015.6 - 0.0
24/03:00pm 20.8 14.5 1.6 28 8.9 N 24 33 13 18 1016.1 1016.0 0.0
24/02:30pm 20.6 14.1 2.4 30 8.5 N 26 35 14 19 1016.5 - 0.0
24/02:00pm 20.4 14.1 3.6 33 8.1 N 26 37 14 20 1016.8 - 0.0
24/01:30pm 20.5 15.1 4.5 35 7.8 N 22 35 12 19 1017.4 - 0.0
24/01:00pm 20.0 14.2 4.5 36 7.6 N 24 33 13 18 1018.0 - 0.0
24/12:30pm 19.4 14.0 4.3 37 7.3 N 22 32 12 17 1018.7 - 0.0
24/12:00pm 19.0 13.2 4.4 38 7.0 N 24 35 13 19 1019.5 1019.4 0.0
24/11:30am 18.9 14.3 5.7 42 6.5 NNW 19 26 10 14 1020.2 - 0.0
24/11:00am 18.1 14.1 6.6 47 5.8 N 17 28 9 15 1021.1 - 0.0
24/10:30am 16.9 13.2 7.8 55 4.6 N 17 24 9 13 1021.4 - 0.0
24/10:00am 16.4 12.6 7.6 56 4.4 N 17 20 9 11 1021.7 - 0.0
24/09:30am 15.3 11.4 7.1 58 4.1 N 17 20 9 11 1021.8 - 0.0
24/09:00am 15.1 12.2 8.1 63 3.5 NNE 13 17 7 9 1022.0 1021.9 0.0
24/08:30am 12.0 10.0 7.1 72 2.4 NNE 7 11 4 6 1022.2 - 0.0
24/08:00am 11.4 8.2 6.9 74 2.2 N 13 17 7 9 1022.0 - 0.0
24/07:30am 9.9 6.2 6.1 77 1.8 N 15 17 8 9 1021.9 - 0.0
24/07:00am 9.9 6.2 6.2 78 1.7 N 15 17 8 9 1021.9 - 0.0
24/06:30am 9.7 6.0 6.4 80 1.5 NNE 15 17 8 9 1021.8 - 0.0
24/06:00am 10.4 7.2 6.9 79 1.7 N 13 19 7 10 1021.5 1021.4 0.0
24/05:30am 10.9 7.5 7.6 80 1.6 NNW 15 19 8 10 1021.4 - 0.0
24/05:00am 11.1 7.0 8.0 81 1.5 NNW 19 24 10 13 1021.1 - 0.0
24/04:30am 11.5 7.9 8.4 81 1.5 N 17 20 9 11 1021.5 - 0.0
24/04:00am 11.1 9.1 8.5 84 1.3 N 9 13 5 7 1021.7 - 0.0
24/03:30am 10.7 7.8 8.1 84 1.3 N 13 15 7 8 1021.9 - 0.0
24/03:00am 10.3 7.8 8.2 87 1.0 N 11 13 6 7 1022.2 1022.1 0.0
24/02:30am 10.2 7.7 8.3 88 0.9 N 11 13 6 7 1022.7 - 0.0
24/02:00am 10.0 8.4 7.8 86 1.1 N 6 7 3 4 1022.7 - 0.0
24/01:30am 10.1 7.8 7.3 83 1.3 N 9 11 5 6 1022.6 - 0.0
24/01:00am 10.3 7.8 8.2 87 1.0 N 11 15 6 8 1022.7 - 0.0
24/12:30am 10.4 8.0 8.7 89 0.8 N 11 15 6 8 1023.1 - 0.0
24/12:00am 9.7 7.5 7.8 88 0.9 N 9 11 5 6 1023.2 1023.1 0.0
 
Date/Time
CST
Temp
°C
App
Temp
°C
Dew
Point
Rel
Hum
%
Delta-T
°C
Wind Press
QNH
hPa
Press
MSL
hPa
Rain
since 9 am
mm
Dir
 
Spd
km/h
Gust
km/h
Spd
kts
Gust
kts
23/11:30pm 9.8 7.6 7.9 88 0.9 N 9 11 5 6 1023.7 - 0.0
23/11:00pm 10.3 7.8 8.1 86 1.1 N 11 13 6 7 1024.0 - 0.0
23/10:30pm 10.5 8.0 8.3 86 1.1 N 11 11 6 6 1024.3 - 0.0
23/10:00pm 9.9 7.9 7.2 83 1.3 N 7 9 4 5 1024.6 - 0.0
23/09:30pm 12.3 12.1 9.0 80 1.7 CALM 0 0 0 0 1024.7 - 0.0
23/09:00pm 13.3 13.1 9.0 75 2.2 CALM 0 0 0 0 1024.9 1024.8 0.0
23/08:30pm 13.9 12.5 8.9 72 2.6 SW 6 7 3 4 1024.9 - 0.0
23/08:00pm 14.2 13.2 8.8 70 2.8 SW 4 7 2 4 1024.9 - 0.0
23/07:30pm 14.1 13.8 8.5 69 2.8 CALM 0 0 0 0 1024.7 - 0.0
23/07:00pm 14.6 13.5 8.5 67 3.1 SSW 4 7 2 4 1024.4 - 0.0
23/06:30pm 15.3 13.3 8.5 64 3.5 W 9 13 5 7 1024.0 - 0.0
23/06:00pm 15.0 12.8 7.8 62 3.6 W 9 13 5 7 1023.5 1023.5 0.0
23/05:30pm 16.1 14.2 7.6 57 4.3 W 7 9 4 5 1023.2 - 0.0
23/05:00pm 17.6 14.9 7.4 51 5.2 W 11 13 6 7 1023.0 - 0.0
23/04:30pm 17.9 14.9 7.6 51 5.3 WNW 13 19 7 10 1022.9 - 0.0
23/04:00pm 19.2 16.2 7.9 48 5.8 WNW 13 20 7 11 1022.7 - 0.0
23/03:30pm 18.8 14.6 7.3 47 5.9 WNW 19 22 10 12 1022.7 - 0.0
23/03:00pm 19.0 15.1 7.1 46 6.0 W 17 28 9 15 1022.5 1022.4 0.0
23/02:30pm 18.6 14.4 8.3 51 5.4 W 20 26 11 14 1022.7 - 0.0
23/02:00pm 18.6 14.0 8.0 50 5.5 W 22 32 12 17 1022.7 - 0.0
23/01:30pm 18.7 14.4 9.2 54 5.0 W 22 30 12 16 1022.6 - 0.0
23/01:00pm 18.1 13.4 9.2 56 4.7 W 24 32 13 17 1022.6 - 0.0
23/12:30pm 17.6 12.9 9.2 58 4.4 W 24 33 13 18 1023.1 - 0.0
23/12:00pm 17.0 12.2 8.9 59 4.2 W 24 35 13 19 1023.5 1023.5 0.0
23/11:30am 16.6 12.8 9.1 61 3.9 W 19 28 10 15 1023.8 - 0.0
23/11:00am 16.5 12.2 9.2 62 3.8 W 22 32 12 17 1024.0 - 0.0
23/10:30am 15.7 11.8 9.4 66 3.3 WNW 20 30 11 16 1024.3 - 0.0
23/10:00am 14.9 10.3 9.5 70 2.8 NW 24 33 13 18 1024.4 - 0.0
23/09:30am 14.3 10.4 9.5 73 2.5 NW 20 30 11 16 1024.0 - 0.0
23/09:00am 13.4 9.5 8.7 73 2.4 NW 19 26 10 14 1024.0 1024.0 0.4
23/08:30am 12.2 9.0 8.3 77 1.9 NW 15 20 8 11 1023.9 - 0.4
23/08:00am 11.2 7.4 7.7 79 1.7 WNW 17 20 9 11 1023.6 - 0.4
23/07:30am 10.6 7.1 7.3 80 1.6 WNW 15 19 8 10 1023.2 - 0.4
23/07:00am 10.6 6.8 7.5 81 1.5 WNW 17 20 9 11 1023.1 - 0.4
23/06:30am 10.1 6.2 7.2 82 1.4 NW 17 20 9 11 1022.6 - 0.4
23/06:00am 10.2 6.3 7.3 82 1.4 NW 17 20 9 11 1022.6 1022.5 0.4
23/05:30am 10.0 5.8 7.4 84 1.3 NNW 19 22 10 12 1022.3 - 0.4
23/05:00am 10.4 6.2 7.3 81 1.5 NW 19 24 10 13 1022.0 - 0.4
23/04:30am 10.1 6.6 7.2 82 1.4 NNW 15 20 8 11 1021.7 - 0.4
23/04:00am 9.9 6.0 7.2 83 1.3 NNW 17 20 9 11 1021.5 - 0.4
23/03:30am 9.9 6.4 7.2 83 1.3 NNW 15 19 8 10 1021.8 - 0.4
23/03:00am 10.1 6.2 7.2 82 1.4 NW 17 22 9 12 1021.8 1021.7 0.4
23/02:30am 10.5 6.7 7.4 81 1.5 NW 17 22 9 12 1021.3 - 0.4
23/02:00am 10.4 6.6 7.5 82 1.4 NW 17 24 9 13 1020.9 - 0.4
23/01:30am 10.6 6.5 7.7 82 1.4 NW 19 28 10 15 1020.8 - 0.4
23/01:00am 11.2 6.4 7.5 78 1.8 NW 22 37 12 20 1020.3 - 0.4
23/12:30am 11.7 6.6 7.6 76 2.0 WNW 24 35 13 19 1020.1 - 0.4
23/12:00am 11.7 7.0 7.8 77 1.9 WNW 22 35 12 19 1019.9 1019.8 0.4
 
Date/Time
CST
Temp
°C
App
Temp
°C
Dew
Point
Rel
Hum
%
Delta-T
°C
Wind Press
QNH
hPa
Press
MSL
hPa
Rain
since 9 am
mm
Dir
 
Spd
km/h
Gust
km/h
Spd
kts
Gust
kts
22/11:30pm 11.3 6.0 8.3 82 1.5 NW 26 35 14 19 1019.6 - 0.4
22/11:00pm 11.3 6.0 8.5 83 1.4 NW 26 39 14 21 1019.5 - 0.4
22/10:30pm 11.1 6.5 8.1 82 1.5 NW 22 32 12 17 1019.2 - 0.4
22/10:00pm 11.7 6.3 8.2 79 1.7 NW 26 37 14 20 1019.0 - 0.4
22/09:30pm 12.3 6.9 8.2 76 2.0 NW 26 39 14 21 1018.4 - 0.4
22/09:00pm 12.7 6.5 8.0 73 2.3 WNW 30 44 16 24 1018.1 1018.0 0.4
22/08:30pm 12.6 6.4 7.9 73 2.3 WNW 30 41 16 22 1017.4 - 0.4
22/08:20pm 12.6 6.7 7.7 72 2.4 WNW 28 46 15 25 1017.2 - 0.4
22/08:00pm 12.4 6.5 7.5 72 2.4 NW 28 41 15 22 1016.7 - 0.4
22/07:30pm 12.7 6.4 7.6 71 2.5 WNW 30 44 16 24 1016.2 - 0.4
22/07:00pm 12.9 7.1 8.0 72 2.4 WNW 28 46 15 25 1015.6 - 0.4
22/06:57pm 13.0 7.2 8.1 72 2.4 WNW 28 46 15 25 1015.6 - 0.4
22/06:30pm 13.0 6.5 8.3 73 2.4 WNW 32 43 17 23 1015.2 - 0.4
22/06:00pm 13.5 6.9 7.9 69 2.8 WNW 32 43 17 23 1014.4 1014.3 0.4
22/05:32pm 14.0 7.3 8.2 68 2.9 W 33 52 18 28 1013.8 - 0.4
22/05:30pm 14.0 6.9 8.2 68 2.9 W 35 52 19 28 1013.8 - 0.4
22/05:08pm 14.9 7.1 8.4 65 3.3 W 39 57 21 31 1013.1 - 0.4
22/05:00pm 15.2 7.1 8.7 65 3.3 W 41 56 22 30 1013.0 - 0.4
22/04:32pm 15.9 10.3 10.2 69 3.0 W 30 48 16 26 1012.0 - 0.4
22/04:30pm 15.9 10.4 10.7 71 2.8 W 30 44 16 24 1012.0 - 0.4
22/04:06pm 16.0 10.1 10.5 70 2.9 W 32 50 17 27 1011.5 - 0.4
22/04:00pm 16.1 9.6 10.2 68 3.1 W 35 50 19 27 1011.5 - 0.4
22/03:30pm 16.4 10.5 11.3 72 2.8 WNW 33 52 18 28 1010.8 - 0.4
22/03:12pm 16.2 7.7 10.7 70 3.0 W 46 65 25 35 1010.3 - 0.4
22/03:00pm 16.4 6.8 10.7 69 3.1 W 52 67 28 36 1010.0 1009.9 0.4
22/02:59pm 16.6 7.6 11.5 72 2.8 W 50 67 27 36 1010.0 - 0.4
22/02:30pm 18.4 13.6 12.8 70 3.2 WNW 30 52 16 28 1009.1 - 0.4
22/02:28pm 18.7 14.0 13.3 71 3.1 WNW 30 48 16 26 1009.2 - 0.4
22/02:00pm 19.1 13.9 13.5 70 3.2 NW 33 50 18 27 1009.2 - 0.4
22/01:30pm 18.4 13.3 13.0 71 3.1 NW 32 52 17 28 1009.2 - 0.4
22/01:27pm 18.2 13.0 12.9 71 3.0 NW 32 52 17 28 1009.2 - 0.4
22/01:00pm 18.2 12.8 12.2 68 3.3 NW 32 46 17 25 1009.2 - 0.4
22/12:40pm 17.9 11.9 10.8 63 3.9 NNW 33 52 18 28 1009.2 - 0.4
22/12:30pm 18.2 12.1 10.3 60 4.3 NNW 33 44 18 24 1009.1 - 0.4
22/12:00pm 17.0 11.8 10.4 65 3.5 NNW 28 43 15 23 1009.0 1008.9 0.4
22/11:30am 16.6 11.0 10.2 66 3.4 NNW 30 44 16 24 1009.4 - 0.4
22/11:00am 16.0 10.8 10.1 68 3.1 NNW 28 41 15 22 1009.1 - 0.4
22/10:30am 16.3 9.6 9.5 64 3.6 N 35 48 19 26 1009.1 - 0.2
22/10:00am 16.5 10.3 9.4 63 3.7 NNW 32 46 17 25 1008.8 - 0.2
22/09:34am 18.4 11.1 7.2 48 5.7 NW 35 54 19 29 1009.5 - 0.0
22/09:30am 18.8 11.7 6.6 45 6.1 NNW 33 48 18 26 1009.3 - 0.0
22/09:15am 19.0 11.2 6.5 44 6.3 NNW 37 57 20 31 1008.9 - 0.0
22/09:00am 19.2 10.9 6.0 42 6.6 NNW 39 54 21 29 1008.6 1008.4 0.0
22/08:30am 20.4 12.4 5.6 38 7.4 NNW 37 59 20 32 1008.3 - 0.0
22/08:02am 19.7 9.9 5.4 39 7.1 N 46 65 25 35 1007.3 - 0.0
22/08:00am 19.6 9.4 5.3 39 7.1 N 48 65 26 35 1007.1 - 0.0
22/07:30am 18.8 9.1 5.6 42 6.5 N 46 72 25 39 1006.1 - 0.0
22/07:00am 18.3 8.2 5.5 43 6.3 N 48 69 26 37 1006.0 - 0.0
22/06:56am 18.4 7.9 5.6 43 6.3 N 50 69 27 37 1006.0 - 0.0
22/06:30am 18.1 7.2 5.7 44 6.1 N 52 67 28 36 1006.0 - 0.0
22/06:23am 18.0 7.5 5.6 44 6.1 N 50 69 27 37 1006.0 - 0.0
22/06:00am 17.9 7.1 5.8 45 6.0 N 52 67 28 36 1006.0 1005.9 0.0
22/05:30am 17.7 7.3 5.9 46 5.8 N 50 69 27 37 1006.2 - 0.0
22/05:29am 17.5 7.1 6.1 47 5.6 N 50 69 27 37 1006.3 - 0.0
22/05:00am 17.8 8.1 6.0 46 5.8 N 46 63 25 34 1006.8 - 0.0
22/04:30am 18.1 6.5 6.0 45 6.0 N 56 76 30 41 1006.5 - 0.0
22/04:22am 18.3 7.5 6.2 45 6.0 N 52 70 28 38 1006.6 - 0.0
22/04:00am 18.0 6.9 6.2 46 5.9 N 54 70 29 38 1007.0 - 0.0
22/03:30am 18.0 7.6 6.2 46 5.9 N 50 69 27 37 1007.7 - 0.0
22/03:10am 18.6 7.9 6.4 45 6.1 N 52 70 28 38 1008.1 - 0.0
22/03:00am 18.3 8.4 6.5 46 5.9 N 48 65 26 35 1008.4 1008.2 0.0
22/02:32am 18.2 9.0 6.4 46 5.9 N 44 69 24 37 1008.7 - 0.0
22/02:30am 18.1 8.9 6.3 46 5.9 N 44 61 24 33 1008.8 - 0.0
22/02:25am 18.1 9.1 6.3 46 5.9 N 43 61 23 33 1009.0 - 0.0
22/02:00am 17.9 9.3 6.4 47 5.7 N 41 52 22 28 1009.3 - 0.0
22/01:38am 18.0 9.0 6.5 47 5.7 N 43 61 23 33 1009.4 - 0.0
22/01:30am 17.9 8.7 6.4 47 5.7 N 44 56 24 30 1009.6 - 0.0
22/01:00am 18.4 8.8 6.3 45 6.0 N 46 59 25 32 1009.9 - 0.0
22/12:30am 18.4 9.2 6.3 45 6.0 N 44 59 24 32 1010.3 - 0.0
22/12:00am 18.1 9.0 5.7 44 6.1 N 43 56 23 30 1010.9 1010.8 0.0
 
Date/Time
CST
Temp
°C
App
Temp
°C
Dew
Point
Rel
Hum
%
Delta-T
°C
Wind Press
QNH
hPa
Press
MSL
hPa
Rain
since 9 am
mm
Dir
 
Spd
km/h
Gust
km/h
Spd
kts
Gust
kts
21/11:30pm 18.3 8.7 4.5 40 6.6 N 44 61 24 33 1010.9 - 0.0
21/11:00pm 18.2 8.7 4.0 39 6.8 N 43 57 23 31 1011.1 - 0.0
21/10:30pm 17.3 8.3 4.3 42 6.2 N 41 59 22 32 1011.5 - 0.0
21/10:28pm 17.2 8.1 4.2 42 6.2 N 41 59 22 32 1011.5 - 0.0
21/10:00pm 17.1 7.8 4.8 44 5.9 N 43 54 23 29 1011.7 - 0.0
21/09:30pm 17.6 8.6 4.5 42 6.3 N 41 52 22 28 1012.0 - 0.0

Other Formats:

Comma delimited format used in spreadsheet applications
http://www.bom.gov.au/fwo/IDS60801/IDS60801.94662.axf

JavaScript Object Notation format (JSON) in row-major order
http://www.bom.gov.au/fwo/IDS60801/IDS60801.94662.json